Airfield :
LOGIN :

Register | Disclaimer

   EN    FR    IT 

 










Legend :    VFR   Marginal VFR   IFR   Intensive IFR   Very Intensive IFR
Visi :
Ceiling :
>= 8 km
>= 3000ft
5 to 8 km
1000 to 3000 ft
1500m to 5 km
500 to 1000 ft
800 to 1500m
200 to 500 ft
< 800m
< 200 ft
Symbols :   Thunderstorms  Fog  Heavy snow  Heavy precipitations  Wind > 20 kt
SIGMETs :     Misc.  Thunderstorms  Icing  Turbulence  Mountain Waves  Volcanic Ashes






- Airport Elevation : 13 ft
- IATA code : CEQ


LFMD - Cannes Mandelieu

CURRENT METAR :
  • 160500Z AUTO 34004KT 290V020 CAVOK 13/07 Q1015 NOSIG

EXPIRED METARs :
  • 160430Z AUTO 35003KT 300V040 CAVOK 12/07 Q1014 NOSIG
  • 160400Z AUTO 35004KT 310V040 CAVOK 12/07 Q1014 NOSIG
  • 160330Z AUTO VRB03KT CAVOK 11/07 Q1014 NOSIG
  • 160300Z AUTO VRB02KT CAVOK 12/07 Q1014 NOSIG
  • 160230Z AUTO VRB02KT 9999 NCD 13/06 Q1013 NOSIG

TAF TAF LFMD
Valid from the 16 at 03:00 until the 17 at 03:00 UTC


160200Z 1603/1703 36005KT CAVOK
BECMG 1611/1613 16005KT
BECMG 1614/1616 09010KT
BECMG 1619/1621 36005KT
ATIS : +33 4 93 48 73 23



MET'MAP, your aeronautical weather chart ! - Copyright ORBIFLY December 2007 - Disclaimer

ORBIFLY MET'MAP TEAM :

Programming & Development : Alexandra Zaïnal
Concept & Development : Baudouin d'Aumeries
Co-Development & Prog : Marc-Olivier Méhu
Technical & hardware support : Manuel Goepfert

Contact : metmap@orbifly.com




SOURCES & CREDITS :

   NOAA